createdAt,value
2022-11-22T01:01:06.396Z,8.47
2022-11-22T01:06:09.792Z,9.63
2022-11-22T01:11:12.945Z,9.93
2022-11-22T01:16:17.713Z,10.10
2022-11-22T01:21:20.604Z,11.07
2022-11-22T01:26:24.091Z,12.33
2022-11-22T01:31:29.980Z,11.53
2022-11-22T01:36:32.723Z,10.53
2022-11-22T01:41:38.363Z,11.43
2022-11-22T01:46:42.973Z,9.27
2022-11-22T01:51:48.098Z,9.43
2022-11-22T01:56:54.155Z,9.90
2022-11-22T02:01:58.633Z,10.17
2022-11-22T02:07:08.412Z,9.73
2022-11-22T02:12:11.645Z,11.03
2022-11-22T02:17:15.883Z,9.20
2022-11-22T02:22:27.052Z,9.60
2022-11-22T02:27:31.175Z,11.40
2022-11-22T02:32:34.045Z,8.57
2022-11-22T02:37:36.849Z,10.53
2022-11-22T02:42:41.527Z,10.67
2022-11-22T02:47:44.283Z,10.37
2022-11-22T02:52:47.502Z,11.60
2022-11-22T02:57:52.020Z,9.27
2022-11-22T03:02:54.854Z,7.67
2022-11-22T03:07:57.630Z,9.00
2022-11-22T03:13:01.702Z,8.03
2022-11-22T03:18:05.259Z,9.60
2022-11-22T03:23:08.127Z,11.53
2022-11-22T03:28:12.221Z,10.37
2022-11-22T03:33:15.043Z,8.97
2022-11-22T03:38:17.733Z,8.50
2022-11-22T03:43:22.054Z,8.77
2022-11-22T03:48:24.801Z,10.70
2022-11-22T03:53:27.527Z,11.47
2022-11-22T03:58:31.647Z,12.93
2022-11-22T04:03:34.393Z,10.90
2022-11-22T04:08:37.209Z,10.03
2022-11-22T04:13:58.660Z,10.73
2022-11-22T04:19:01.363Z,11.60
2022-11-22T04:24:22.971Z,12.60
2022-11-22T04:29:27.002Z,15.10
2022-11-22T04:34:30.148Z,10.43
2022-11-22T04:39:33.143Z,12.33
2022-11-22T04:44:43.007Z,11.63
2022-11-22T04:49:45.938Z,12.27
2022-11-22T04:54:48.719Z,10.93
2022-11-22T04:59:52.779Z,10.17
2022-11-22T05:04:55.661Z,12.47
2022-11-22T05:09:58.325Z,10.50
2022-11-22T05:15:02.463Z,9.90
2022-11-22T05:20:05.912Z,10.83
2022-11-22T05:25:09.686Z,11.07
2022-11-22T05:30:14.374Z,10.13
2022-11-22T05:35:17.345Z,11.13
2022-11-22T05:40:20.250Z,11.13
2022-11-22T05:45:24.504Z,11.83
2022-11-22T05:50:27.306Z,12.47
2022-11-22T05:55:30.627Z,10.30
2022-11-22T06:00:34.810Z,9.53
2022-11-22T06:05:37.567Z,14.50
2022-11-22T06:10:40.343Z,11.40
2022-11-22T06:15:44.455Z,11.10
2022-11-22T06:20:47.175Z,14.40
2022-11-22T06:25:57.437Z,12.77
2022-11-22T06:31:03.239Z,12.83
2022-11-22T06:36:07.066Z,11.80
2022-11-22T06:41:11.101Z,10.73
2022-11-22T06:46:15.569Z,10.70
2022-11-22T06:51:20.314Z,14.07
2022-11-22T06:56:25.097Z,12.07
2022-11-22T07:01:30.196Z,10.97
2022-11-22T07:06:34.749Z,9.97
2022-11-22T07:11:38.533Z,11.07
2022-11-22T07:16:42.709Z,11.17
2022-11-22T07:21:45.448Z,11.73
2022-11-22T07:26:48.166Z,12.87
2022-11-22T07:31:52.246Z,9.97
2022-11-22T07:36:59.724Z,16.93
2022-11-22T07:42:04.750Z,11.77
2022-11-22T07:47:09.054Z,13.47
2022-11-22T07:52:12.012Z,12.17
2022-11-22T07:57:14.834Z,8.97
2022-11-22T08:02:19.022Z,9.97
2022-11-22T08:07:21.876Z,9.23
2022-11-22T08:12:24.909Z,10.40
2022-11-22T08:17:29.070Z,11.90
2022-11-22T08:22:32.009Z,9.83
2022-11-22T08:27:34.759Z,9.57
2022-11-22T08:32:39.057Z,12.03
2022-11-22T08:37:41.839Z,10.73
2022-11-22T08:42:44.569Z,11.17
2022-11-22T08:47:48.934Z,15.17
2022-11-22T08:52:51.712Z,9.80
2022-11-22T08:57:54.624Z,10.27
2022-11-22T09:02:58.686Z,10.40
2022-11-22T09:13:24.221Z,15.80
2022-11-22T09:18:28.293Z,9.10
2022-11-22T09:23:31.481Z,11.47
2022-11-22T09:28:34.946Z,17.30
2022-11-22T09:33:40.685Z,14.67
2022-11-22T09:38:43.819Z,11.67
2022-11-22T09:43:51.856Z,11.77
2022-11-22T09:49:08.573Z,10.60
2022-11-22T09:54:14.218Z,12.90
2022-11-22T09:59:21.255Z,10.10
2022-11-22T10:04:27.730Z,11.80
2022-11-22T10:09:35.042Z,10.53
2022-11-22T10:14:42.724Z,8.90
2022-11-22T10:19:52.224Z,9.77
2022-11-22T10:24:55.300Z,12.87
2022-11-22T10:30:01.574Z,9.67
2022-11-22T10:35:21.558Z,11.10
2022-11-22T10:40:27.927Z,11.13
2022-11-22T10:45:33.041Z,11.50
2022-11-22T10:50:47.300Z,9.43
2022-11-22T10:55:56.610Z,11.53
2022-11-22T11:01:02.616Z,10.30
2022-11-22T11:06:24.452Z,10.60
2022-11-22T11:11:32.283Z,12.23
2022-11-22T11:16:36.911Z,10.00
2022-11-22T11:21:40.961Z,8.20
2022-11-22T11:26:45.122Z,10.30
2022-11-22T11:31:49.650Z,8.60
2022-11-22T11:36:55.826Z,9.83
2022-11-22T11:41:58.989Z,8.00
2022-11-22T11:47:02.154Z,9.37
2022-11-22T11:52:08.695Z,7.33
2022-11-22T11:57:12.647Z,7.10
2022-11-22T12:02:16.749Z,8.10
2022-11-22T12:07:25.457Z,5.20
2022-11-22T12:12:46.244Z,6.27
2022-11-22T12:17:56.450Z,6.10
2022-11-22T12:23:11.686Z,5.83
2022-11-22T12:28:19.435Z,4.40
2022-11-22T12:33:26.378Z,5.40
2022-11-22T12:38:33.959Z,7.57
2022-11-22T12:43:39.294Z,12.33
2022-11-22T12:48:48.709Z,7.10
2022-11-22T12:53:54.446Z,7.40
2022-11-22T12:59:02.054Z,6.10
2022-11-22T13:04:13.374Z,5.77
2022-11-22T13:09:20.256Z,5.27
2022-11-22T13:14:27.769Z,6.37
2022-11-22T13:19:31.857Z,6.00
2022-11-22T13:24:45.986Z,15.40
2022-11-22T13:29:48.898Z,8.70
2022-11-22T13:35:07.704Z,5.50
2022-11-22T13:40:23.863Z,8.20
2022-11-22T13:45:26.690Z,9.97
2022-11-22T13:51:02.761Z,8.77
2022-11-22T13:56:44.434Z,7.53
2022-11-22T14:02:03.994Z,5.83
2022-11-22T14:07:21.514Z,5.20
2022-11-22T14:12:31.455Z,7.33
2022-11-22T14:17:42.352Z,7.17
2022-11-22T14:22:51.205Z,8.97
2022-11-22T14:28:00.000Z,8.10
2022-11-22T14:33:06.098Z,8.30
2022-11-22T14:38:40.106Z,6.97
2022-11-22T14:43:44.094Z,17.67
2022-11-22T14:48:52.709Z,14.70
2022-11-22T14:53:56.898Z,8.27
2022-11-22T14:59:07.556Z,13.83
2022-11-22T15:09:15.565Z,10.53
2022-11-22T15:10:05.532Z,9.73
2022-11-22T15:58:50.454Z,7.40
2022-11-22T16:03:54.741Z,8.63
2022-11-22T16:08:59.925Z,6.73
2022-11-22T16:14:02.908Z,8.60
2022-11-22T16:19:21.592Z,7.73
2022-11-22T16:24:28.138Z,6.50
2022-11-22T16:29:33.752Z,6.93
2022-11-22T16:34:37.377Z,7.13
2022-11-22T16:39:41.620Z,8.37
2022-11-22T16:44:44.476Z,5.50
2022-11-22T16:49:48.205Z,6.23
2022-11-22T16:54:52.539Z,6.17
2022-11-22T16:59:55.635Z,6.40
2022-11-22T17:04:58.577Z,5.00
2022-11-22T17:10:03.043Z,7.33
2022-11-22T17:15:06.533Z,7.20
2022-11-22T17:20:10.171Z,6.40
2022-11-22T17:25:14.834Z,5.60
2022-11-22T17:30:17.949Z,8.90
2022-11-22T17:35:20.968Z,6.77
2022-11-22T17:40:25.107Z,5.63
2022-11-22T17:45:27.947Z,5.63
2022-11-22T17:50:31.037Z,6.47
2022-11-22T17:56:02.618Z,5.27
2022-11-22T18:01:05.586Z,6.03
2022-11-22T18:06:09.265Z,8.23
2022-11-22T18:11:13.716Z,9.23
2022-11-22T18:16:18.121Z,5.10
2022-11-22T18:21:21.043Z,7.47
2022-11-22T18:26:41.597Z,7.90
2022-11-22T18:31:53.955Z,5.83
2022-11-22T18:37:01.959Z,6.80
2022-11-22T18:42:08.640Z,4.57
2022-11-22T18:47:11.408Z,7.90
2022-11-22T18:52:16.685Z,6.90
2022-11-22T18:57:22.299Z,5.30
2022-11-22T19:02:26.175Z,7.10
2022-11-22T19:07:29.236Z,8.23
2022-11-22T19:12:33.585Z,8.53
2022-11-22T19:17:36.807Z,7.50
2022-11-22T19:22:39.733Z,6.43
2022-11-22T19:27:43.892Z,4.80
2022-11-22T19:32:46.666Z,5.23
2022-11-22T19:37:49.427Z,5.57
2022-11-22T19:42:53.992Z,3.97
2022-11-22T19:47:57.420Z,6.73
2022-11-22T19:53:00.211Z,5.23
2022-11-22T19:58:04.513Z,9.83
2022-11-22T20:03:07.356Z,6.13
2022-11-22T20:08:10.948Z,6.93
2022-11-22T20:13:15.119Z,6.23
2022-11-22T20:18:17.955Z,4.50
2022-11-22T20:23:20.775Z,6.30
2022-11-22T20:28:24.886Z,6.70
2022-11-22T20:33:27.606Z,5.10
2022-11-22T20:38:33.085Z,4.93
2022-11-22T20:43:37.852Z,4.40
2022-11-22T20:48:42.064Z,7.20
2022-11-22T20:53:45.089Z,10.30
2022-11-22T20:58:49.386Z,8.97
2022-11-22T21:03:52.906Z,7.20
2022-11-22T21:08:55.950Z,8.70
2022-11-22T21:14:00.532Z,5.97
2022-11-22T21:19:04.856Z,7.80
2022-11-22T21:24:08.706Z,7.87
2022-11-22T21:29:16.749Z,7.07
2022-11-22T21:34:19.641Z,6.30
2022-11-22T21:39:22.339Z,7.27
2022-11-22T21:44:26.440Z,4.93
2022-11-22T21:49:29.252Z,4.57
2022-11-22T21:54:32.952Z,6.33
2022-11-22T21:59:37.208Z,4.87
2022-11-22T22:04:39.916Z,4.83
2022-11-22T22:09:42.692Z,4.33
2022-11-22T22:14:46.791Z,5.37
2022-11-22T22:19:49.576Z,3.60
2022-11-22T22:24:52.424Z,5.90
2022-11-22T22:29:56.525Z,4.53
2022-11-22T22:34:59.480Z,5.33
2022-11-22T22:40:02.262Z,7.27
2022-11-22T22:45:07.452Z,5.10
2022-11-22T22:50:10.827Z,6.23
2022-11-22T22:55:13.587Z,7.03
2022-11-22T23:00:19.232Z,6.10
2022-11-22T23:05:22.911Z,3.73
2022-11-22T23:10:25.659Z,5.73
2022-11-22T23:15:51.073Z,5.30
2022-11-22T23:20:52.458Z,4.07
2022-11-22T23:25:55.285Z,6.23
2022-11-22T23:31:04.853Z,4.80
2022-11-22T23:36:09.367Z,5.00
2022-11-22T23:41:13.294Z,6.10
2022-11-22T23:46:17.367Z,4.87
2022-11-22T23:51:20.163Z,6.43
2022-11-22T23:56:23.554Z,5.27
